Kannapolis, NC

10:09 AM EST on December 19, 2014 (GMT -0500)
International Business Park - OAC | Change Station
CLOSE
Current Station
Personal Weather Station
Location: Concord, NC
Elevation: 735 ft
Nearby Weather Stations

Elev 735 ft 35.42 °N, 80.66 °W | Updated 22 minutes ago

Clear
Clear
48.1 °F
Feels Like 48 °F
N
1.0
Wind Variable Wind from West
Gusts 3.0 mph

Today
High -- | Low -- °F
--% Chance of Precip.
Yesterday
High -- | Low -- °F
Precip. -- in
7:26 AM 5:12 PM
Waning Crescent, 7% visible
Pressure 30.22 in
Visibility 10.0 miles
Clouds Clear
Windchill 48 °F
Dew Point 30 °F
Humidity 49%
Rainfall 0.00 in
Snow Depth Not available.
UV 2 out of 12
Pollen 1.10 out of 12
Air Quality Not available.
Flu Activity Not available.
METAR KJQF 191450Z 00000KT 10SM CLR 08/03 A3022

More Conditions Fewer Conditions

Pressure 30.22 in
Visibility 10.0 miles
Clouds Clear
Windchill 48 °F
Dew Point 30 °F
Humidity 49%
Rainfall 0.00 in
Snow Depth Not available.
UV 2 out of 12
Pollen 1.10 out of 12
Air Quality Not available.
Flu Activity Not available.
METAR KJQF 191450Z 00000KT 10SM CLR 08/03 A3022

More Conditions Fewer Conditions

10-Day Weather Forecast

Almanac

Astronomy

Dec. 19, 2014 Rise Set
Actual Time
Civil Twilight
Nautical Twilight
Astronomical Twilight
Moon
Length of Visible Light
Length of Day
Tomorrow will be .
, % of the Moon is Illuminated

Today's Extremes

State Highs State Lows

Community

WunderPhotos

Upload Photos

1,778,993 photos uploaded!

WunderBlogs® & News

Nearby

Air Quality

  Air Quality AQ Index Pollutant
Not available.

Snow Depth

Station Depth Elevation

Earthquake Activity

City Distance Mag. Time & Date
Minimum magnitude displayed is 2.5.

Coastal Water Temperatures

Place Temperature

Nearby Weather Stations